Time;durP1;ratioP1;P1;durP2;ratioP2;P2;SDS_P1;SDS_P2;PMS_P1;PMS_P2;Temp;Humidity;BMP_temperature;BMP_pressure;BME280_temperature;BME280_humidity;BME280_pressure;Samples;Min_cycle;Max_cycle;Signal;HPM_P1;HPM_P2
2023/03/18 00:04:51;;;;;;;12.40;5.10;;;;;;;3.35;50.80;101123.73;107072;1256;1016088;-71
2023/03/18 00:09:45;;;;;;;7.90;5.90;;;;;;;3.35;50.67;101121.49;107009;1256;1016284;-72
2023/03/18 00:14:38;;;;;;;9.40;5.00;;;;;;;3.35;50.66;101121.84;107148;1257;1015908;-72
2023/03/18 00:19:32;;;;;;;8.00;4.40;;;;;;;3.32;50.72;101118.40;107035;1257;1019434;-72
2023/03/18 00:24:26;;;;;;;7.60;4.20;;;;;;;3.32;50.77;101121.66;106993;1256;1016302;-73
2023/03/18 00:29:19;;;;;;;7.50;4.60;;;;;;;3.30;50.81;101119.66;107276;1256;1073879;-72
2023/03/18 00:34:13;;;;;;;9.30;5.10;;;;;;;3.28;50.67;101111.55;107054;1257;1016268;-72
2023/03/18 00:39:08;;;;;;;13.30;4.20;;;;;;;3.30;50.66;101111.98;107152;1256;1016158;-73
2023/03/18 00:44:02;;;;;;;6.70;4.10;;;;;;;3.30;50.35;101110.92;107054;1256;1051484;-72
2023/03/18 00:48:58;;;;;;;5.50;3.80;;;;;;;3.29;50.48;101107.29;106910;1256;1016485;-72
2023/03/18 00:53:55;;;;;;;7.50;4.50;;;;;;;3.26;50.60;101096.13;106863;1256;1077900;-72
2023/03/18 00:58:51;;;;;;;8.60;4.40;;;;;;;3.25;50.55;101093.03;106966;1256;1066495;-72
2023/03/18 01:03:46;;;;;;;7.50;4.30;;;;;;;3.21;50.40;101090.94;106904;1257;1070953;-73
2023/03/18 01:08:41;;;;;;;8.70;4.70;;;;;;;3.16;50.73;101087.23;106920;1256;1050842;-72
2023/03/18 01:13:36;;;;;;;8.80;4.80;;;;;;;3.12;50.40;101088.05;107046;1256;1057352;-72
2023/03/18 01:18:30;;;;;;;7.20;4.00;;;;;;;3.11;50.54;101079.42;107018;1256;1072752;-73
2023/03/18 01:23:24;;;;;;;6.50;4.10;;;;;;;3.05;50.36;101072.64;107071;1257;1066165;-72
2023/03/18 01:28:18;;;;;;;6.80;4.20;;;;;;;3.03;50.38;101069.29;107155;1256;1016315;-73
2023/03/18 01:33:11;;;;;;;6.50;3.50;;;;;;;3.01;50.61;101062.68;107276;1256;1016176;-73
2023/03/18 01:38:06;;;;;;;7.40;4.00;;;;;;;2.97;50.59;101056.98;107072;1256;1016096;-72
2023/03/18 01:43:16;;;;;;;7.30;4.20;;;;;;;2.92;50.84;101052.77;106968;1257;1073846;-72
2023/03/18 01:48:18;;;;;;;7.50;3.90;;;;;;;2.91;50.74;101046.20;107013;1256;1065773;-72
2023/03/18 01:53:17;;;;;;;8.90;3.90;;;;;;;2.91;50.56;101044.46;106912;1256;1071624;-72
2023/03/18 01:58:27;;;;;;;8.20;4.00;;;;;;;2.92;50.55;101049.17;108155;1254;1051523;-72
2023/03/18 02:03:24;;;;;;;7.30;4.20;;;;;;;2.89;50.82;101049.33;106814;1262;1058904;-72
2023/03/18 02:08:40;;;;;;;7.60;4.40;;;;;;;2.82;50.57;101050.87;106765;1257;1073796;-73
2023/03/18 02:14:05;;;;;;;5.30;3.40;;;;;;;2.78;50.60;101050.97;106942;1257;1065447;-73
2023/03/18 02:19:22;;;;;;;10.20;4.80;;;;;;;2.76;50.84;101051.74;106854;1257;1073640;-72
2023/03/18 02:24:44;;;;;;;6.50;4.10;;;;;;;2.72;50.87;101047.02;106864;1258;1105288;-72
2023/03/18 02:29:48;;;;;;;10.80;5.30;;;;;;;2.67;51.21;101046.66;106866;1258;1058366;-72
2023/03/18 02:35:03;;;;;;;6.40;4.00;;;;;;;2.63;51.18;101041.09;106855;1261;1072813;-72
2023/03/18 02:40:18;;;;;;;5.60;3.60;;;;;;;2.59;51.03;101038.84;106882;1258;1065182;-72
2023/03/18 02:45:30;;;;;;;6.60;3.60;;;;;;;2.51;51.57;101033.94;106839;1258;1070379;-72
2023/03/18 02:50:38;;;;;;;7.30;3.10;;;;;;;2.44;51.36;101032.92;106803;1257;1051258;-72
2023/03/18 02:55:34;;;;;;;6.20;3.50;;;;;;;2.45;51.39;101030.03;106886;1257;1058452;-72
2023/03/18 03:00:27;;;;;;;6.40;3.10;;;;;;;2.46;51.15;101030.11;106856;1257;1016318;-73
2023/03/18 03:05:22;;;;;;;7.30;3.60;;;;;;;2.47;51.04;101028.96;106938;1257;1064244;-72
2023/03/18 03:10:16;;;;;;;7.00;3.40;;;;;;;2.46;51.40;101019.79;106762;1257;1016474;-72
2023/03/18 03:15:10;;;;;;;6.70;4.10;;;;;;;2.48;50.60;101008.30;106856;1262;1017389;-73
2023/03/18 03:20:10;;;;;;;5.70;3.50;;;;;;;2.48;50.53;101009.33;106797;1257;1057996;-72
2023/03/18 03:25:04;;;;;;;5.90;3.70;;;;;;;2.44;51.09;101008.57;106872;1257;1072758;-72
2023/03/18 03:29:58;;;;;;;6.90;3.50;;;;;;;2.37;50.65;101006.64;106952;1257;1065212;-72
2023/03/18 03:34:51;;;;;;;10.10;3.70;;;;;;;2.34;50.64;101007.67;106941;1257;1016038;-72
2023/03/18 03:39:44;;;;;;;8.80;4.20;;;;;;;2.34;50.56;101007.55;106810;1258;1016249;-72
2023/03/18 03:44:37;;;;;;;6.40;3.80;;;;;;;2.30;50.46;101000.30;106871;1257;1016611;-72
2023/03/18 03:49:30;;;;;;;5.60;3.40;;;;;;;2.30;50.54;101003.38;106863;1257;1016394;-72
2023/03/18 03:54:25;;;;;;;4.80;3.20;;;;;;;2.30;50.70;101006.27;106934;1258;1016555;-72
2023/03/18 03:59:19;;;;;;;6.70;2.60;;;;;;;2.30;50.24;101003.90;106790;1257;1070701;-72
2023/03/18 04:04:27;;;;;;;5.40;2.70;;;;;;;2.28;50.37;101002.95;106856;1257;1051375;-73
2023/03/18 04:09:21;;;;;;;4.50;2.80;;;;;;;2.32;50.32;101004.33;106756;1257;1018084;-72
2023/03/18 04:14:15;;;;;;;6.80;3.20;;;;;;;2.31;50.52;101007.38;106909;1257;1016450;-72
2023/03/18 04:19:08;;;;;;;4.40;2.60;;;;;;;2.26;50.66;101005.89;106892;1257;1018408;-72
2023/03/18 04:24:02;;;;;;;5.80;3.00;;;;;;;2.29;50.35;101010.66;106901;1257;1016710;-72
2023/03/18 04:28:57;;;;;;;5.50;3.00;;;;;;;2.27;50.55;101014.85;106796;1257;1050839;-72
2023/03/18 04:33:50;;;;;;;3.80;2.60;;;;;;;2.28;50.49;101016.65;106795;1262;1016634;-72
2023/03/18 04:38:45;;;;;;;4.40;2.80;;;;;;;2.29;50.42;101014.64;106843;1257;1016671;-72
2023/03/18 04:43:38;;;;;;;5.10;2.50;;;;;;;2.27;50.14;101018.83;106802;1257;1065170;-72
2023/03/18 04:48:32;;;;;;;6.60;2.70;;;;;;;2.25;50.60;101017.33;106829;1257;1016446;-73
2023/03/18 04:53:27;;;;;;;5.90;3.40;;;;;;;2.24;50.21;101020.52;106940;1257;1051463;-72
2023/03/18 04:58:20;;;;;;;4.40;3.00;;;;;;;2.30;50.20;101020.64;106818;1257;1016317;-72
2023/03/18 05:03:24;;;;;;;6.60;3.10;;;;;;;2.34;50.50;101021.40;106851;1259;1072026;-72
2023/03/18 05:08:18;;;;;;;5.40;2.90;;;;;;;2.36;50.72;101024.89;106834;1257;1065358;-72
2023/03/18 05:13:12;;;;;;;6.80;3.20;;;;;;;2.36;50.69;101024.77;106827;1257;1016518;-72
2023/03/18 05:18:05;;;;;;;5.40;3.10;;;;;;;2.38;50.83;101022.63;106918;1257;1016314;-72
2023/03/18 05:22:58;;;;;;;6.00;2.80;;;;;;;2.41;51.04;101023.16;106916;1257;1016510;-72
2023/03/18 05:28:01;;;;;;;5.50;3.00;;;;;;;2.50;50.71;101025.35;106871;1261;1072198;-72
2023/03/18 05:33:02;;;;;;;3.20;2.70;;;;;;;2.57;50.66;101022.84;106911;1257;1065386;-72
2023/03/18 05:38:17;;;;;;;5.70;2.90;;;;;;;2.62;50.67;101021.56;106767;1257;1070384;-72
2023/03/18 05:43:10;;;;;;;4.30;2.60;;;;;;;2.68;50.49;101018.76;106784;1257;1051332;-72
2023/03/18 05:48:10;;;;;;;4.40;2.70;;;;;;;2.75;50.51;101016.77;106864;1257;1058919;-72
2023/03/18 05:53:11;;;;;;;16.10;3.60;;;;;;;2.80;50.18;101007.59;106876;1257;1073487;-72
2023/03/18 05:58:06;;;;;;;6.50;3.40;;;;;;;2.88;50.33;101009.21;106888;1257;1065140;-72
2023/03/18 06:03:01;;;;;;;7.50;3.30;;;;;;;2.94;50.44;101011.59;106868;1258;1070316;-73
2023/03/18 06:07:55;;;;;;;6.30;2.80;;;;;;;3.02;49.96;101010.14;106902;1257;1050855;-72
2023/03/18 06:12:49;;;;;;;5.10;2.90;;;;;;;3.15;49.75;101007.36;106910;1257;1016259;-72
2023/03/18 06:17:42;;;;;;;5.70;3.10;;;;;;;3.28;49.44;101005.44;106915;1258;1016895;-72
2023/03/18 06:22:36;;;;;;;4.10;2.50;;;;;;;3.52;49.32;101002.23;106813;1259;1016283;-72
2023/03/18 06:27:29;;;;;;;6.50;2.90;;;;;;;3.72;49.04;101003.90;106896;1257;1016114;-73
2023/03/18 06:32:23;;;;;;;7.60;3.70;;;;;;;3.94;48.62;101012.46;106848;1262;1016490;-73
2023/03/18 06:37:16;;;;;;;7.10;3.10;;;;;;;4.14;48.43;101005.23;106925;1257;1016101;-72
2023/03/18 06:42:10;;;;;;;6.10;3.20;;;;;;;4.55;47.45;101002.66;106930;1257;1016521;-72
2023/03/18 06:47:12;;;;;;;6.00;3.10;;;;;;;4.83;47.07;100999.30;106821;1257;1065601;-72
2023/03/18 06:52:09;;;;;;;5.40;2.90;;;;;;;4.99;46.17;101006.50;106897;1257;1071284;-73
2023/03/18 06:57:02;;;;;;;8.90;3.30;;;;;;;5.08;46.02;101012.77;106834;1257;1016258;-73
2023/03/18 07:01:55;;;;;;;11.80;3.70;;;;;;;5.43;45.72;101003.45;106889;1258;1016449;-72
2023/03/18 07:06:51;;;;;;;4.00;2.80;;;;;;;5.71;45.10;101003.20;106891;1257;1016301;-72
2023/03/18 07:11:46;;;;;;;4.90;2.50;;;;;;;5.92;44.79;101003.58;106904;1257;1065331;-72
2023/03/18 07:16:42;;;;;;;6.50;3.10;;;;;;;5.95;44.67;100994.54;106863;1257;1069836;-72
2023/03/18 07:21:36;;;;;;;5.80;2.50;;;;;;;6.01;44.64;101000.67;106826;1261;1016237;-72
2023/03/18 07:26:30;;;;;;;4.90;3.00;;;;;;;6.10;44.34;100996.73;106834;1257;1016229;-72
2023/03/18 07:31:24;;;;;;;5.80;3.20;;;;;;;6.24;43.55;101004.35;106896;1257;1072801;-73
2023/03/18 07:36:18;;;;;;;8.20;4.00;;;;;;;7.12;42.61;100987.91;106840;1262;1016420;-72
2023/03/18 07:41:11;;;;;;;5.10;3.50;;;;;;;7.78;41.71;100996.23;106897;1257;1017787;-72
2023/03/18 07:46:04;;;;;;;8.10;3.40;;;;;;;7.82;42.20;100998.44;106824;1258;1016510;-72
2023/03/18 07:50:59;;;;;;;4.40;3.90;;;;;;;8.89;41.89;100998.14;106903;1257;1016301;-73
2023/03/18 07:55:51;;;;;;;4.10;3.70;;;;;;;11.47;39.47;100992.32;106860;1259;1016320;-73
2023/03/18 08:00:45;;;;;;;4.80;3.30;;;;;;;14.00;37.35;100983.23;106860;1259;1016211;-72
2023/03/18 08:05:38;;;;;;;8.40;3.60;;;;;;;14.45;36.07;100984.92;106855;1257;1015995;-73
2023/03/18 08:10:31;;;;;;;5.90;3.90;;;;;;;16.20;34.39;100979.83;106873;1262;1016625;-73
2023/03/18 08:15:25;;;;;;;4.20;3.50;;;;;;;15.85;33.47;100980.23;106792;1258;1016415;-73
2023/03/18 08:20:19;;;;;;;5.10;3.90;;;;;;;16.50;33.12;100969.10;106896;1257;1018370;-73
2023/03/18 08:25:12;;;;;;;5.60;3.50;;;;;;;17.58;30.74;100972.20;106887;1257;1015918;-73
2023/03/18 08:30:06;;;;;;;4.40;3.40;;;;;;;16.83;31.40;100972.66;106775;1262;1018460;-73
2023/03/18 08:35:00;;;;;;;9.90;3.70;;;;;;;17.40;31.33;100968.15;106910;1259;1016432;-73
2023/03/18 08:39:53;;;;;;;4.00;3.30;;;;;;;18.06;30.26;100959.69;106825;1257;1016102;-75
2023/03/18 08:44:46;;;;;;;4.50;3.40;;;;;;;18.24;29.86;100960.33;106926;1257;1017410;-72
2023/03/18 08:49:39;;;;;;;6.10;3.40;;;;;;;16.06;30.65;100964.82;106854;1257;1018030;-72
2023/03/18 08:54:32;;;;;;;8.50;3.70;;;;;;;15.35;31.04;100966.39;106890;1257;1016394;-72
2023/03/18 08:59:25;;;;;;;5.40;2.90;;;;;;;14.86;30.98;100964.19;106860;1258;1018857;-72
2023/03/18 09:04:18;;;;;;;5.60;3.40;;;;;;;15.16;31.16;100955.73;106859;1257;1016158;-72
2023/03/18 09:09:11;;;;;;;6.00;3.40;;;;;;;15.01;30.90;100947.48;106805;1259;1016346;-72
2023/03/18 09:14:05;;;;;;;6.40;3.30;;;;;;;14.23;31.07;100942.44;106852;1257;1016414;-72
2023/03/18 09:18:58;;;;;;;7.30;2.70;;;;;;;13.77;31.57;100937.27;106832;1257;1016283;-72
2023/03/18 09:23:51;;;;;;;3.40;2.70;;;;;;;13.95;31.84;100937.71;106816;1257;1018286;-72
2023/03/18 09:28:45;;;;;;;4.50;2.70;;;;;;;14.07;30.25;100936.08;106828;1257;1016334;-72
2023/03/18 09:33:40;;;;;;;6.20;3.00;;;;;;;14.23;30.64;100931.98;106868;1257;1016263;-72
2023/03/18 09:38:34;;;;;;;10.60;3.50;;;;;;;15.32;29.34;100924.30;106853;1257;1065232;-72
2023/03/18 09:43:57;;;;;;;4.70;4.00;;;;;;;16.46;29.24;100916.64;106794;1259;1016326;-73
2023/03/18 09:49:12;;;;;;;5.70;3.00;;;;;;;16.09;29.23;100923.05;106847;1257;1054647;-73
2023/03/18 09:54:13;;;;;;;6.20;3.20;;;;;;;15.91;29.48;100921.00;106883;1258;1057076;-73
2023/03/18 09:59:21;;;;;;;4.20;3.80;;;;;;;16.67;28.68;100914.25;106801;1257;1072600;-73
2023/03/18 10:04:23;;;;;;;5.70;3.50;;;;;;;18.59;26.72;100905.91;106802;1259;1067479;-73
2023/03/18 10:09:50;;;;;;;5.00;3.60;;;;;;;19.93;26.61;100905.08;106856;1257;1070994;-73
2023/03/18 10:14:51;;;;;;;4.90;3.50;;;;;;;21.07;26.72;100897.10;106810;1258;1051186;-73
2023/03/18 10:20:03;;;;;;;6.50;3.60;;;;;;;21.33;24.66;100898.94;106849;1258;1058717;-74
2023/03/18 10:24:56;;;;;;;3.60;3.10;;;;;;;21.19;24.89;100898.23;106830;1257;1072723;-73
2023/03/18 10:30:08;;;;;;;5.80;3.00;;;;;;;20.74;24.24;100891.67;106778;1257;1016091;-73
2023/03/18 10:35:18;;;;;;;3.70;3.40;;;;;;;20.72;24.71;100883.80;106689;1259;1071713;-75
2023/03/18 10:40:17;;;;;;;4.00;3.10;;;;;;;20.85;24.47;100884.05;106729;1258;1051402;-73
2023/03/18 10:45:22;;;;;;;4.30;2.90;;;;;;;20.34;24.44;100869.30;106728;1260;1058149;-73
2023/03/18 10:50:38;;;;;;;3.90;3.00;;;;;;;20.28;24.67;100868.88;106703;1258;1073616;-73
2023/03/18 10:55:46;;;;;;;7.10;4.40;;;;;;;19.91;24.68;100866.10;106736;1259;1064248;-73
2023/03/18 11:00:39;;;;;;;4.90;2.90;;;;;;;20.36;25.27;100864.45;106671;1259;1071689;-73
2023/03/18 11:05:36;;;;;;;3.80;3.20;;;;;;;20.95;24.73;100863.36;106679;1262;1016262;-73
2023/03/18 11:10:38;;;;;;;5.10;3.30;;;;;;;21.27;24.21;100856.27;106684;1258;1058257;-73
2023/03/18 11:15:40;;;;;;;6.40;3.40;;;;;;;21.16;24.04;100849.48;106719;1260;1073646;-73
2023/03/18 11:20:44;;;;;;;4.80;3.40;;;;;;;21.65;24.15;100847.53;106797;1258;1065838;-73
2023/03/18 11:25:36;;;;;;;4.30;3.40;;;;;;;21.95;23.24;100841.41;106726;1259;1070496;-74
2023/03/18 11:30:35;;;;;;;5.40;3.40;;;;;;;21.93;23.78;100840.25;106616;1259;1016414;-73
2023/03/18 11:35:40;;;;;;;3.70;2.80;;;;;;;21.89;23.82;100836.11;106665;1259;1059217;-73
2023/03/18 11:40:33;;;;;;;5.00;3.40;;;;;;;21.95;23.62;100825.88;106757;1259;1075038;-73
2023/03/18 11:45:34;;;;;;;3.80;3.10;;;;;;;21.82;23.67;100813.75;106761;1259;1016309;-73
2023/03/18 11:51:06;;;;;;;4.60;3.00;;;;;;;21.79;23.69;100816.10;106759;1260;1071246;-73
2023/03/18 11:56:36;;;;;;;5.50;2.90;;;;;;;21.29;23.34;100812.13;106435;1265;1049936;-73
2023/03/18 12:02:01;;;;;;;3.60;3.20;;;;;;;20.58;24.07;100811.37;106374;1265;1058857;-73
2023/03/18 12:07:00;;;;;;;5.10;4.00;;;;;;;19.48;23.92;100809.54;106444;1265;1073041;-73
2023/03/18 12:12:00;;;;;;;5.80;4.10;;;;;;;18.82;25.24;100815.56;106425;1265;1068333;-73
2023/03/18 12:17:02;;;;;;;4.00;3.00;;;;;;;18.49;26.24;100814.10;106432;1265;1070481;-73
2023/03/18 12:22:34;;;;;;;5.10;3.50;;;;;;;18.10;25.70;100810.23;106462;1265;1051328;-73
2023/03/18 12:27:57;;;;;;;6.00;4.60;;;;;;;17.42;26.03;100805.17;106481;1265;1058860;-73
2023/03/18 12:33:09;;;;;;;4.30;3.10;;;;;;;17.09;26.82;100803.90;106759;1262;1075789;-73
2023/03/18 12:38:02;;;;;;;6.20;2.90;;;;;;;17.21;26.68;100804.50;106817;1257;1065506;-73
2023/03/18 12:43:07;;;;;;;3.80;3.10;;;;;;;17.05;26.86;100803.07;106818;1257;1016606;-73
2023/03/18 12:48:08;;;;;;;4.60;3.40;;;;;;;16.85;26.62;100802.86;106833;1259;1050945;-72
2023/03/18 12:53:34;;;;;;;3.10;2.70;;;;;;;16.46;26.61;100793.66;106776;1257;1058112;-73
2023/03/18 12:58:49;;;;;;;5.40;3.50;;;;;;;16.54;27.10;100793.26;106260;1266;1073150;-73
2023/03/18 13:03:46;;;;;;;6.20;3.50;;;;;;;16.57;26.76;100780.45;106333;1267;1064920;-73
2023/03/18 13:09:02;;;;;;;;;;;;;;;16.37;26.88;100786.71;106283;1267;1073508;-73
2023/03/18 13:14:02;;;;;;;6.30;3.10;;;;;;;16.19;27.51;100782.09;106265;1270;1050972;-73
2023/03/18 13:18:59;;;;;;;5.80;3.00;;;;;;;16.31;27.86;100772.56;106318;1268;1058400;-73
2023/03/18 13:24:16;;;;;;;3.20;2.90;;;;;;;16.33;27.63;100772.55;106269;1270;1073253;-73
2023/03/18 13:29:32;;;;;;;3.70;2.70;;;;;;;16.20;27.63;100768.27;106325;1267;1064989;-74
2023/03/18 13:34:35;;;;;;;7.80;3.60;;;;;;;16.02;27.55;100762.41;106623;1259;1071598;-74
2023/03/18 13:40:11;;;;;;;5.00;3.00;;;;;;;16.06;27.78;100755.75;106707;1259;1051380;-73
2023/03/18 13:45:26;;;;;;;5.60;2.90;;;;;;;16.08;27.45;100749.96;106716;1259;1058799;-73
2023/03/18 13:50:20;;;;;;;5.60;3.80;;;;;;;16.02;27.73;100743.36;106799;1259;1073112;-73
2023/03/18 13:55:23;;;;;;;25.70;5.10;;;;;;;15.92;27.87;100747.08;106784;1259;1016421;-73
2023/03/18 14:00:48;;;;;;;7.10;3.80;;;;;;;15.82;27.95;100740.99;106773;1257;1071832;-73
2023/03/18 14:05:42;;;;;;;7.70;3.00;;;;;;;15.47;28.05;100739.52;106273;1270;1051036;-73
2023/03/18 14:10:35;;;;;;;5.90;3.60;;;;;;;15.11;28.32;100732.43;106272;1270;1016280;-73
2023/03/18 14:15:44;;;;;;;7.70;3.60;;;;;;;14.86;28.63;100728.44;106282;1267;1015952;-73
2023/03/18 14:20:41;;;;;;;4.20;2.80;;;;;;;14.74;28.94;100727.05;106249;1267;1065290;-73
2023/03/18 14:25:39;;;;;;;;;;;;;;;14.52;28.70;100724.92;106185;1268;1070721;-73
2023/03/18 14:30:36;;;;;;;5.40;3.20;;;;;;;14.17;29.08;100724.33;106243;1268;1050722;-73
2023/03/18 14:35:35;;;;;;;8.70;3.90;;;;;;;13.86;29.40;100725.29;106283;1268;1058021;-73
2023/03/18 14:40:31;;;;;;;4.90;2.80;;;;;;;13.69;29.64;100722.27;106504;1259;1072955;-73
2023/03/18 14:45:27;;;;;;;4.90;3.40;;;;;;;13.57;30.27;100715.05;106817;1257;1065149;-73
2023/03/18 14:50:44;;;;;;;8.10;3.70;;;;;;;13.58;30.57;100714.71;106799;1260;1077203;-73
2023/03/18 14:55:38;;;;;;;5.50;3.50;;;;;;;13.48;30.45;100714.15;106787;1257;1052373;-72
2023/03/18 15:00:35;;;;;;;6.50;3.40;;;;;;;13.38;30.47;100705.91;106807;1262;1017019;-73
2023/03/18 15:05:34;;;;;;;7.00;3.70;;;;;;;13.29;30.55;100712.13;106714;1262;1072877;-73
2023/03/18 15:10:31;;;;;;;9.70;4.50;;;;;;;13.22;30.84;100707.36;106810;1261;1065041;-73
2023/03/18 15:15:24;;;;;;;5.10;3.70;;;;;;;13.15;31.01;100706.96;106814;1257;1070910;-72
2023/03/18 15:20:18;;;;;;;9.30;5.10;;;;;;;13.05;31.36;100710.56;106857;1261;1016179;-72
2023/03/18 15:25:19;;;;;;;5.30;3.70;;;;;;;12.98;31.60;100705.81;106908;1259;1016472;-73
2023/03/18 15:30:31;;;;;;;9.20;4.20;;;;;;;12.85;31.91;100700.16;106771;1262;1075751;-73
2023/03/18 15:35:27;;;;;;;6.30;4.20;;;;;;;12.73;31.87;100700.58;106815;1262;1065774;-73
2023/03/18 15:40:24;;;;;;;6.80;3.60;;;;;;;12.60;32.51;100701.86;106853;1260;1071881;-73
2023/03/18 15:45:25;;;;;;;7.60;4.20;;;;;;;12.45;32.95;100701.92;106869;1259;1049908;-73
2023/03/18 15:50:30;;;;;;;6.80;3.90;;;;;;;12.32;33.03;100698.84;106805;1260;1059089;-73
2023/03/18 15:55:29;;;;;;;6.90;4.10;;;;;;;12.17;33.62;100705.65;106827;1262;1075431;-72
2023/03/18 16:00:24;;;;;;;7.70;4.80;;;;;;;12.02;33.56;100707.21;106781;1260;1065399;-73
2023/03/18 16:05:24;;;;;;;4.50;3.50;;;;;;;11.85;33.77;100713.42;107038;1257;1016561;-73
2023/03/18 16:10:21;;;;;;;6.80;4.10;;;;;;;11.68;33.96;100719.13;106771;1257;1051567;-73
2023/03/18 16:15:20;;;;;;;8.10;4.50;;;;;;;11.52;34.34;100723.60;106836;1262;1061109;-73
2023/03/18 16:20:20;;;;;;;8.90;4.60;;;;;;;11.33;35.51;100732.20;106846;1258;1073122;-73
2023/03/18 16:25:13;;;;;;;7.80;4.40;;;;;;;11.10;35.78;100735.16;106854;1258;1065287;-73
2023/03/18 16:30:16;;;;;;;11.60;5.10;;;;;;;10.87;36.19;100742.78;106821;1262;1016090;-73
2023/03/18 16:35:14;;;;;;;11.40;5.30;;;;;;;10.69;36.86;100748.91;106889;1257;1054650;-72
2023/03/18 16:40:26;;;;;;;7.30;4.00;;;;;;;10.49;37.24;100745.61;106863;1257;1058055;-72
2023/03/18 16:45:25;;;;;;;9.20;4.10;;;;;;;10.27;37.99;100743.97;106867;1262;1073107;-73
2023/03/18 16:50:22;;;;;;;6.50;4.40;;;;;;;10.10;38.27;100742.25;106792;1262;1065793;-73
2023/03/18 16:55:18;;;;;;;9.90;5.10;;;;;;;9.89;38.70;100737.34;106852;1262;1070481;-73
2023/03/18 17:00:23;;;;;;;9.30;4.50;;;;;;;9.74;39.11;100739.64;106807;1262;1049636;-74
2023/03/18 17:05:17;;;;;;;9.00;4.50;;;;;;;9.57;39.36;100745.86;106871;1260;1057476;-73
2023/03/18 17:10:12;;;;;;;7.90;3.50;;;;;;;9.42;40.17;100756.61;106857;1260;1016471;-73
2023/03/18 17:15:08;;;;;;;7.10;3.80;;;;;;;9.31;40.86;100755.14;106879;1258;1065785;-73
2023/03/18 17:20:03;;;;;;;7.80;3.90;;;;;;;9.18;41.60;100754.85;106819;1257;1073010;-73
2023/03/18 17:24:58;;;;;;;11.40;4.50;;;;;;;9.06;42.11;100759.08;106869;1258;1016220;-73
2023/03/18 17:29:52;;;;;;;11.70;4.50;;;;;;;8.93;42.12;100760.48;106768;1257;1060958;-74
2023/03/18 17:34:51;;;;;;;6.30;3.60;;;;;;;8.80;42.52;100761.90;106867;1257;1016397;-73
2023/03/18 17:39:44;;;;;;;7.30;4.20;;;;;;;8.68;42.92;100759.36;106887;1257;1065828;-74
2023/03/18 17:44:37;;;;;;;8.30;4.40;;;;;;;8.57;43.14;100763.90;106832;1262;1016320;-73
2023/03/18 17:49:30;;;;;;;8.50;5.50;;;;;;;8.46;43.55;100770.53;106904;1257;1016192;-73
2023/03/18 17:54:26;;;;;;;14.60;5.60;;;;;;;8.37;44.21;100772.67;106883;1257;1016486;-73
2023/03/18 17:59:20;;;;;;;10.20;5.70;;;;;;;8.30;44.57;100777.66;106880;1257;1072875;-73
2023/03/18 18:04:16;;;;;;;8.30;4.80;;;;;;;8.22;44.86;100779.68;106808;1262;1016492;-73
2023/03/18 18:09:12;;;;;;;12.30;5.60;;;;;;;8.13;45.19;100781.34;106825;1257;1075971;-73
2023/03/18 18:14:24;;;;;;;13.30;5.80;;;;;;;8.04;45.69;100784.90;106919;1257;1050892;-73
2023/03/18 18:19:18;;;;;;;11.00;6.30;;;;;;;7.96;45.98;100774.32;106848;1257;1057975;-73
2023/03/18 18:24:20;;;;;;;11.60;7.30;;;;;;;7.89;46.25;100771.86;106842;1262;1016491;-73
2023/03/18 18:29:18;;;;;;;11.80;7.60;;;;;;;7.78;46.38;100770.86;106736;1258;1065081;-73
2023/03/18 18:34:12;;;;;;;11.40;8.00;;;;;;;7.69;46.49;100769.71;106847;1257;1071141;-73
2023/03/18 18:39:05;;;;;;;10.00;7.50;;;;;;;7.57;46.83;100766.64;106818;1258;1016401;-73
2023/03/18 18:43:58;;;;;;;12.20;7.30;;;;;;;7.49;47.05;100761.39;106784;1257;1016478;-73
2023/03/18 18:48:52;;;;;;;13.20;8.50;;;;;;;7.42;47.44;100762.20;106863;1257;1016011;-73
2023/03/18 18:53:46;;;;;;;13.40;7.70;;;;;;;7.34;47.64;100755.74;106854;1257;1016924;-73
2023/03/18 18:58:40;;;;;;;11.90;7.90;;;;;;;7.27;47.60;100758.98;106957;1257;1016243;-74
2023/03/18 19:03:34;;;;;;;12.20;7.50;;;;;;;7.20;47.80;100754.63;106820;1257;1051326;-74
2023/03/18 19:08:35;;;;;;;12.20;7.80;;;;;;;7.13;48.03;100761.65;106923;1257;1059595;-74
2023/03/18 19:13:30;;;;;;;14.80;7.50;;;;;;;7.09;48.34;100761.70;106848;1257;1072847;-75
2023/03/18 19:18:24;;;;;;;12.80;7.60;;;;;;;7.04;48.68;100765.86;106919;1262;1065284;-75
2023/03/18 19:23:24;;;;;;;10.40;7.00;;;;;;;7.01;48.73;100769.02;106820;1257;1071960;-75
2023/03/18 19:28:40;;;;;;;16.60;7.80;;;;;;;7.06;48.32;100768.49;106823;1262;1053916;-75
2023/03/18 19:33:49;;;;;;;9.80;7.50;;;;;;;7.10;48.89;100766.54;106866;1257;1058751;-74
2023/03/18 19:38:41;;;;;;;12.90;8.20;;;;;;;7.12;48.59;100766.61;106872;1257;1072951;-75
2023/03/18 19:43:35;;;;;;;12.80;8.20;;;;;;;7.11;48.64;100768.83;106823;1257;1016156;-73
2023/03/18 19:48:28;;;;;;;16.00;7.40;;;;;;;7.12;48.28;100764.55;106775;1257;1016303;-75
2023/03/18 19:53:21;;;;;;;12.00;7.50;;;;;;;7.10;48.19;100768.98;106845;1257;1016424;-75
2023/03/18 19:58:24;;;;;;;12.90;7.60;;;;;;;7.13;47.83;100769.23;106894;1257;1016043;-75
2023/03/18 20:03:19;;;;;;;14.50;8.10;;;;;;;7.16;47.93;100765.36;106906;1257;1072873;-74
2023/03/18 20:08:12;;;;;;;15.10;8.80;;;;;;;7.14;47.64;100771.34;106842;1261;1064392;-75
2023/03/18 20:13:05;;;;;;;12.80;7.90;;;;;;;7.13;47.46;100767.35;106882;1259;1017641;-75
2023/03/18 20:18:01;;;;;;;13.70;7.90;;;;;;;7.10;47.52;100766.40;106878;1257;1016479;-74
2023/03/18 20:22:58;;;;;;;12.20;8.20;;;;;;;7.03;47.78;100760.65;106810;1259;1058348;-74
2023/03/18 20:27:54;;;;;;;13.90;9.60;;;;;;;6.94;47.87;100766.39;106811;1259;1073257;-74
2023/03/18 20:32:48;;;;;;;11.60;7.30;;;;;;;6.91;47.91;100764.23;106868;1259;1065419;-74
2023/03/18 20:37:41;;;;;;;13.30;9.20;;;;;;;6.80;48.30;100766.30;106828;1260;1016415;-75
2023/03/18 20:42:34;;;;;;;14.00;8.00;;;;;;;6.71;48.75;100763.55;106892;1258;1016219;-74
2023/03/18 20:47:27;;;;;;;13.40;8.40;;;;;;;6.60;49.02;100756.66;106827;1262;1016466;-75
2023/03/18 20:52:27;;;;;;;14.10;8.60;;;;;;;6.51;49.06;100757.58;106864;1258;1016446;-74
2023/03/18 20:57:20;;;;;;;15.10;7.70;;;;;;;6.43;49.50;100757.13;106843;1257;1068302;-75
2023/03/18 21:02:35;;;;;;;12.60;7.80;;;;;;;6.36;49.58;100754.48;106894;1257;1016209;-75
2023/03/18 21:07:29;;;;;;;19.40;8.60;;;;;;;6.29;49.92;100759.21;106844;1259;1051501;-74
2023/03/18 21:12:22;;;;;;;14.70;7.20;;;;;;;6.21;50.22;100761.00;106760;1259;1058661;-74
2023/03/18 21:17:19;;;;;;;12.20;7.90;;;;;;;6.11;50.68;100757.87;106834;1259;1016233;-74
2023/03/18 21:22:17;;;;;;;12.20;7.30;;;;;;;5.99;51.10;100753.86;106964;1258;1066226;-75
2023/03/18 21:27:19;;;;;;;13.40;6.80;;;;;;;5.89;51.20;100751.91;106824;1259;1071026;-74
2023/03/18 21:32:24;;;;;;;12.60;7.00;;;;;;;5.81;51.15;100752.65;106804;1259;1050148;-74
2023/03/18 21:37:18;;;;;;;11.80;6.70;;;;;;;5.70;51.31;100757.77;106781;1257;1058558;-74
2023/03/18 21:42:23;;;;;;;10.60;7.30;;;;;;;5.63;51.57;100753.89;106861;1257;1016445;-74
2023/03/18 21:47:19;;;;;;;15.90;7.80;;;;;;;5.56;51.68;100751.55;106888;1257;1066458;-74
2023/03/18 21:52:19;;;;;;;12.30;7.70;;;;;;;5.49;51.98;100752.30;106839;1259;1071988;-74
2023/03/18 21:57:17;;;;;;;10.80;6.50;;;;;;;5.44;52.40;100755.06;106861;1262;1051511;-74
2023/03/18 22:02:35;;;;;;;10.30;6.70;;;;;;;5.40;52.68;100753.00;106915;1257;1057885;-74
2023/03/18 22:07:30;;;;;;;13.40;7.50;;;;;;;5.35;52.85;100752.63;106898;1257;1072204;-74
2023/03/18 22:12:26;;;;;;;18.00;7.60;;;;;;;5.31;53.18;100743.06;106860;1257;1065647;-74
2023/03/18 22:17:27;;;;;;;12.30;7.80;;;;;;;5.27;53.54;100746.67;106833;1257;1071444;-75
2023/03/18 22:22:26;;;;;;;12.30;7.60;;;;;;;5.23;53.69;100744.96;106755;1257;1050830;-75
2023/03/18 22:27:30;;;;;;;15.00;7.70;;;;;;;5.19;53.99;100752.17;106741;1257;1059801;-74
2023/03/18 22:32:35;;;;;;;14.00;7.00;;;;;;;5.16;54.20;100755.84;106740;1257;1074000;-74